createdAt,value
2019-03-29T00:00:26.554Z,1031.11
2019-03-29T00:01:26.270Z,1031.11
2019-03-29T00:02:26.194Z,1031.11
2019-03-29T00:03:26.095Z,1031.09
2019-03-29T00:04:26.896Z,1031.08
2019-03-29T00:05:25.919Z,1031.13
2019-03-29T00:06:25.982Z,1031.12
2019-03-29T00:07:38.933Z,1031.15
2019-03-29T00:08:25.669Z,1031.12
2019-03-29T00:09:25.795Z,1031.12
2019-03-29T00:10:25.498Z,1031.08
2019-03-29T00:11:25.406Z,1031.12
2019-03-29T00:12:25.436Z,1031.10
2019-03-29T00:13:25.233Z,1031.09
2019-03-29T00:14:25.159Z,1031.11
2019-03-29T00:15:25.222Z,1031.11
2019-03-29T00:16:25.913Z,1031.07
2019-03-29T00:17:25.073Z,1031.14
2019-03-29T00:18:24.806Z,1031.11
2019-03-29T00:19:24.719Z,1031.09
2019-03-29T00:20:24.640Z,1031.11
2019-03-29T00:21:24.548Z,1031.10
2019-03-29T00:22:24.476Z,1031.11
2019-03-29T00:23:24.383Z,1031.12
2019-03-29T00:24:24.297Z,1031.10
2019-03-29T00:25:24.261Z,1031.06
2019-03-29T00:26:24.941Z,1031.05
2019-03-29T00:27:24.067Z,1031.02
2019-03-29T00:28:23.964Z,1031.08
2019-03-29T00:29:23.907Z,1031.04
2019-03-29T00:30:23.783Z,1031.00
2019-03-29T00:31:23.692Z,1030.99
2019-03-29T00:32:23.617Z,1030.98
2019-03-29T00:33:24.028Z,1030.97
2019-03-29T00:34:23.432Z,1030.98
2019-03-29T00:35:23.355Z,1030.96
2019-03-29T00:36:23.262Z,1030.94
2019-03-29T00:37:23.196Z,1030.92
2019-03-29T00:38:23.225Z,1030.87
2019-03-29T00:39:23.005Z,1030.91
2019-03-29T00:40:22.928Z,1030.92
2019-03-29T00:41:22.834Z,1030.89
2019-03-29T00:42:22.761Z,1030.87
2019-03-29T00:43:22.666Z,1030.88
2019-03-29T00:44:22.577Z,1030.83
2019-03-29T00:45:22.495Z,1030.85
2019-03-29T00:46:22.428Z,1030.86
2019-03-29T00:47:22.337Z,1030.81
2019-03-29T00:48:22.245Z,1030.82
2019-03-29T00:49:22.156Z,1030.78
2019-03-29T00:50:22.066Z,1030.73
2019-03-29T00:51:21.974Z,1030.67
2019-03-29T00:52:21.911Z,1030.66
2019-03-29T00:53:21.805Z,1030.66
2019-03-29T00:54:21.719Z,1030.65
2019-03-29T00:55:21.643Z,1030.64
2019-03-29T00:56:21.549Z,1030.62
2019-03-29T00:57:21.473Z,1030.61
2019-03-29T00:58:21.392Z,1030.59
2019-03-29T00:59:21.303Z,1030.60
2019-03-29T01:00:21.206Z,1030.59
2019-03-29T01:01:21.128Z,1030.59
2019-03-29T01:02:21.037Z,1030.52
2019-03-29T01:03:20.977Z,1030.57
2019-03-29T01:04:20.865Z,1030.53
2019-03-29T01:05:20.990Z,1030.52
2019-03-29T01:06:20.693Z,1030.49
2019-03-29T01:07:20.611Z,1030.53
2019-03-29T01:08:20.538Z,1030.50
2019-03-29T01:09:20.437Z,1030.47
2019-03-29T01:10:20.361Z,1030.46
2019-03-29T01:11:20.267Z,1030.45
2019-03-29T01:12:20.186Z,1030.47
2019-03-29T01:13:20.120Z,1030.47
2019-03-29T01:14:20.009Z,1030.47
2019-03-29T01:15:19.930Z,1030.44
2019-03-29T01:16:19.841Z,1030.49
2019-03-29T01:17:20.113Z,1030.47
2019-03-29T01:18:19.698Z,1030.47
2019-03-29T01:19:19.588Z,1030.45
2019-03-29T01:20:19.506Z,1030.50
2019-03-29T01:21:19.413Z,1030.44
2019-03-29T01:22:19.328Z,1030.48
2019-03-29T01:23:19.264Z,1030.47
2019-03-29T01:24:19.157Z,1030.52
2019-03-29T01:25:19.071Z,1030.48
2019-03-29T01:26:18.985Z,1030.42
2019-03-29T01:27:19.235Z,1030.44
2019-03-29T01:28:18.830Z,1030.46
2019-03-29T01:29:18.734Z,1030.43
2019-03-29T01:30:18.645Z,1030.47
2019-03-29T01:31:18.565Z,1030.44
2019-03-29T01:32:18.474Z,1030.46
2019-03-29T01:33:18.411Z,1030.50
2019-03-29T01:34:18.312Z,1030.47
2019-03-29T01:35:18.220Z,1030.50
2019-03-29T01:36:18.141Z,1030.47
2019-03-29T01:37:18.044Z,1030.45
2019-03-29T01:38:22.115Z,1030.51
2019-03-29T01:39:17.880Z,1030.51
2019-03-29T01:40:17.792Z,1030.49
2019-03-29T01:41:17.719Z,1030.44
2019-03-29T01:42:18.877Z,1030.45
2019-03-29T01:43:17.552Z,1030.42
2019-03-29T01:44:17.460Z,1030.45
2019-03-29T01:45:17.412Z,1030.40
2019-03-29T01:46:17.287Z,1030.38
2019-03-29T01:47:17.197Z,1030.38
2019-03-29T01:48:17.130Z,1030.36
2019-03-29T01:49:17.033Z,1030.35
2019-03-29T01:50:16.987Z,1030.33
2019-03-29T01:51:16.856Z,1030.35
2019-03-29T01:52:16.776Z,1030.35
2019-03-29T01:53:16.741Z,1030.33
2019-03-29T01:54:16.680Z,1030.30
2019-03-29T01:55:16.520Z,1030.35
2019-03-29T01:56:16.434Z,1030.30
2019-03-29T01:57:16.356Z,1030.29
2019-03-29T01:58:16.267Z,1030.29
2019-03-29T01:59:16.882Z,1030.27
2019-03-29T02:00:16.088Z,1030.24
2019-03-29T02:01:16.009Z,1030.25
2019-03-29T02:02:15.916Z,1030.21
2019-03-29T02:03:15.830Z,1030.17
2019-03-29T02:04:15.769Z,1030.16
2019-03-29T02:05:15.665Z,1030.15
2019-03-29T02:06:15.579Z,1030.14
2019-03-29T02:07:15.489Z,1030.16
2019-03-29T02:08:15.406Z,1030.18
2019-03-29T02:09:15.338Z,1030.15
2019-03-29T02:10:15.233Z,1030.16
2019-03-29T02:11:15.170Z,1030.20
2019-03-29T02:12:15.070Z,1030.18
2019-03-29T02:13:14.977Z,1030.14
2019-03-29T02:14:14.902Z,1030.14
2019-03-29T02:15:14.811Z,1030.07
2019-03-29T02:16:14.719Z,1030.08
2019-03-29T02:17:14.642Z,1030.12
2019-03-29T02:18:14.549Z,1030.14
2019-03-29T02:19:14.484Z,1030.15
2019-03-29T02:20:14.375Z,1030.12
2019-03-29T02:21:14.293Z,1030.11
2019-03-29T02:22:14.227Z,1030.06
2019-03-29T02:23:14.122Z,1030.08
2019-03-29T02:24:14.050Z,1030.08
2019-03-29T02:25:13.969Z,1030.06
2019-03-29T02:26:13.861Z,1030.04
2019-03-29T02:27:13.779Z,1030.07
2019-03-29T02:28:13.691Z,1030.08
2019-03-29T02:29:13.627Z,1030.08
2019-03-29T02:30:13.529Z,1030.09
2019-03-29T02:31:13.446Z,1030.13
2019-03-29T02:32:13.349Z,1030.15
2019-03-29T02:33:13.267Z,1030.15
2019-03-29T02:34:13.192Z,1030.12
2019-03-29T02:35:13.090Z,1030.10
2019-03-29T02:36:13.008Z,1030.07
2019-03-29T02:37:12.923Z,1030.08
2019-03-29T02:38:12.836Z,1030.06
2019-03-29T02:39:12.767Z,1030.05
2019-03-29T02:40:12.662Z,1030.06
2019-03-29T02:41:12.574Z,1030.08
2019-03-29T02:42:12.498Z,1030.06
2019-03-29T02:43:12.403Z,1030.07
2019-03-29T02:44:12.331Z,1030.03
2019-03-29T02:45:12.238Z,1030.06
2019-03-29T02:46:12.144Z,1030.05
2019-03-29T02:47:12.059Z,1030.01
2019-03-29T02:48:11.981Z,1030.02
2019-03-29T02:49:13.171Z,1030.00
2019-03-29T02:50:11.819Z,1029.99
2019-03-29T02:51:11.729Z,1030.00
2019-03-29T02:52:11.632Z,1029.98
2019-03-29T02:53:11.543Z,1029.91
2019-03-29T02:54:11.478Z,1029.89
2019-03-29T02:55:11.374Z,1029.96
2019-03-29T02:56:11.288Z,1029.96
2019-03-29T02:57:11.204Z,1030.01
2019-03-29T02:58:11.114Z,1029.96
2019-03-29T02:59:11.063Z,1029.97
2019-03-29T03:00:10.947Z,1029.98
2019-03-29T03:01:10.854Z,1029.93
2019-03-29T03:02:10.887Z,1029.99
2019-03-29T03:03:10.690Z,1029.95
2019-03-29T03:04:10.614Z,1029.96
2019-03-29T03:05:10.520Z,1029.94
2019-03-29T03:06:10.424Z,1029.94
2019-03-29T03:07:10.348Z,1029.94
2019-03-29T03:08:10.251Z,1029.92
2019-03-29T03:09:14.170Z,1029.94
2019-03-29T03:10:10.085Z,1029.95
2019-03-29T03:11:10.004Z,1029.94
2019-03-29T03:12:09.911Z,1029.89
2019-03-29T03:13:09.833Z,1029.91
2019-03-29T03:14:09.762Z,1029.91
2019-03-29T03:15:09.656Z,1029.87
2019-03-29T03:16:09.565Z,1029.84
2019-03-29T03:17:09.482Z,1029.84
2019-03-29T03:18:09.397Z,1029.84
2019-03-29T03:19:09.319Z,1029.83
2019-03-29T03:20:09.218Z,1029.85
2019-03-29T03:21:09.147Z,1029.81
2019-03-29T03:22:09.048Z,1029.86
2019-03-29T03:23:08.965Z,1029.87
2019-03-29T03:24:08.889Z,1029.85
2019-03-29T03:25:08.793Z,1029.84
2019-03-29T03:26:08.702Z,1029.86
2019-03-29T03:27:08.622Z,1029.85
2019-03-29T03:28:08.529Z,1029.86
2019-03-29T03:29:08.478Z,1029.87
2019-03-29T03:30:08.357Z,1029.89
2019-03-29T03:31:08.497Z,1029.90
2019-03-29T03:32:08.183Z,1029.92
2019-03-29T03:33:08.346Z,1029.85
2019-03-29T03:34:08.027Z,1029.89
2019-03-29T03:35:07.943Z,1029.91
2019-03-29T03:36:07.837Z,1029.87
2019-03-29T03:37:07.751Z,1029.92
2019-03-29T03:38:07.671Z,1029.89
2019-03-29T03:39:07.579Z,1029.88
2019-03-29T03:40:07.510Z,1029.90
2019-03-29T03:41:07.413Z,1029.93
2019-03-29T03:42:07.324Z,1029.94
2019-03-29T03:43:07.241Z,1029.91
2019-03-29T03:44:07.167Z,1029.91
2019-03-29T03:45:07.111Z,1029.97
2019-03-29T03:46:06.977Z,1029.91
2019-03-29T03:47:06.900Z,1029.92
2019-03-29T03:48:06.807Z,1029.96
2019-03-29T03:49:06.717Z,1029.89
2019-03-29T03:50:06.651Z,1029.93
2019-03-29T03:51:06.543Z,1029.91
2019-03-29T03:52:06.457Z,1029.90
2019-03-29T03:53:06.377Z,1029.91
2019-03-29T03:54:06.286Z,1029.93
2019-03-29T03:55:06.223Z,1029.87
2019-03-29T03:56:06.116Z,1029.89
2019-03-29T03:57:06.024Z,1029.88
2019-03-29T03:58:05.945Z,1029.87
2019-03-29T03:59:05.857Z,1029.86
2019-03-29T04:00:05.778Z,1029.86
2019-03-29T04:01:05.694Z,1029.92
2019-03-29T04:02:05.606Z,1029.90
2019-03-29T04:03:05.506Z,1029.87
2019-03-29T04:04:05.421Z,1029.87
2019-03-29T04:05:05.358Z,1029.90
2019-03-29T04:06:05.253Z,1029.88
2019-03-29T04:07:05.166Z,1029.87
2019-03-29T04:08:05.074Z,1029.82
2019-03-29T04:09:04.992Z,1029.86
2019-03-29T04:10:04.911Z,1029.83
2019-03-29T04:11:04.961Z,1029.83
2019-03-29T04:12:04.725Z,1029.80
2019-03-29T04:13:04.646Z,1029.79
2019-03-29T04:14:04.614Z,1029.82
2019-03-29T04:15:04.495Z,1029.83
2019-03-29T04:16:04.384Z,1029.85
2019-03-29T04:17:04.368Z,1029.83
2019-03-29T04:18:04.220Z,1029.85
2019-03-29T04:19:04.131Z,1029.86
2019-03-29T04:20:04.051Z,1029.85
2019-03-29T04:21:03.957Z,1029.85
2019-03-29T04:22:03.861Z,1029.90
2019-03-29T04:23:03.781Z,1029.90
2019-03-29T04:24:03.694Z,1029.90
2019-03-29T04:25:03.642Z,1029.88
2019-03-29T04:26:03.521Z,1029.95
2019-03-29T04:27:03.433Z,1029.94
2019-03-29T04:28:03.358Z,1029.91
2019-03-29T04:29:05.079Z,1029.94
2019-03-29T04:30:03.189Z,1029.92
2019-03-29T04:31:03.116Z,1029.86
2019-03-29T04:32:03.003Z,1029.86
2019-03-29T04:33:02.927Z,1029.83
2019-03-29T04:34:02.823Z,1029.79
2019-03-29T04:35:02.758Z,1029.84
2019-03-29T04:36:02.656Z,1029.80
2019-03-29T04:37:02.567Z,1029.81
2019-03-29T04:38:02.495Z,1029.85
2019-03-29T04:39:02.389Z,1029.84
2019-03-29T04:40:07.778Z,1029.82
2019-03-29T04:41:02.232Z,1029.87
2019-03-29T04:42:02.230Z,1029.86
2019-03-29T04:43:02.045Z,1029.85
2019-03-29T04:44:01.970Z,1029.87
2019-03-29T04:45:01.895Z,1029.89
2019-03-29T04:46:01.808Z,1029.87
2019-03-29T04:47:01.715Z,1029.92
2019-03-29T04:48:01.614Z,1029.93
2019-03-29T04:49:01.535Z,1029.92
2019-03-29T04:50:01.461Z,1029.90
2019-03-29T04:51:01.357Z,1029.92
2019-03-29T04:52:01.264Z,1029.95
2019-03-29T04:53:01.186Z,1029.87
2019-03-29T04:54:01.094Z,1029.87
2019-03-29T04:55:01.030Z,1029.89
2019-03-29T04:56:00.918Z,1029.93
2019-03-29T04:57:00.835Z,1029.89
2019-03-29T04:58:00.751Z,1029.88
2019-03-29T04:59:00.667Z,1029.91
2019-03-29T05:00:00.584Z,1029.92
2019-03-29T05:01:00.517Z,1029.93
2019-03-29T05:02:00.401Z,1029.93
2019-03-29T05:03:00.311Z,1029.91
2019-03-29T05:04:00.303Z,1029.87
2019-03-29T05:05:00.363Z,1029.90
2019-03-29T05:06:00.058Z,1029.83
2019-03-29T05:06:59.981Z,1029.82
2019-03-29T05:07:59.885Z,1029.79
2019-03-29T05:08:59.811Z,1029.81
2019-03-29T05:09:59.723Z,1029.80
2019-03-29T05:10:59.735Z,1029.82
2019-03-29T05:11:59.531Z,1029.83
2019-03-29T05:12:59.795Z,1029.84
2019-03-29T05:13:59.364Z,1029.79
2019-03-29T05:14:59.384Z,1029.80
2019-03-29T05:15:59.190Z,1029.79
2019-03-29T05:16:59.159Z,1029.80
2019-03-29T05:17:59.015Z,1029.79
2019-03-29T05:18:58.928Z,1029.83
2019-03-29T05:19:58.911Z,1029.80
2019-03-29T05:20:58.761Z,1029.78
2019-03-29T05:21:59.279Z,1029.82
2019-03-29T05:22:58.687Z,1029.85
2019-03-29T05:23:58.490Z,1029.83
2019-03-29T05:25:01.923Z,1029.80
2019-03-29T05:25:58.318Z,1029.83
2019-03-29T05:26:58.305Z,1029.81
2019-03-29T05:27:58.150Z,1029.81
2019-03-29T05:28:58.118Z,1029.81
2019-03-29T05:29:57.982Z,1029.78
2019-03-29T05:30:58.954Z,1029.80
2019-03-29T05:31:57.798Z,1029.78
2019-03-29T05:32:57.716Z,1029.82
2019-03-29T05:33:57.742Z,1029.81
2019-03-29T05:34:57.542Z,1029.77
2019-03-29T05:35:57.466Z,1029.79
2019-03-29T05:36:58.554Z,1029.75
2019-03-29T05:37:57.281Z,1029.75
2019-03-29T05:38:57.191Z,1029.74
2019-03-29T05:39:57.128Z,1029.79
2019-03-29T05:40:57.018Z,1029.74
